Time;durP1;ratioP1;P1;durP2;ratioP2;P2;SDS_P1;SDS_P2;PMS_P1;PMS_P2;Temp;Humidity;BMP_temperature;BMP_pressure;BME280_temperature;BME280_humidity;BME280_pressure;Samples;Min_cycle;Max_cycle;Signal;HPM_P1;HPM_P2
2023/12/08 00:00:35;;;;;;;10.33;6.37;;;;;;;8.36;72.34;94651.81;4974145;28;20279;-46
2023/12/08 00:03:07;;;;;;;7.23;5.53;;;;;;;8.35;72.27;94658.63;4955889;28;20281;-46
2023/12/08 00:05:39;;;;;;;6.20;5.60;;;;;;;8.32;72.38;94647.88;4974355;28;20638;-46
2023/12/08 00:08:06;;;;;;;7.27;5.17;;;;;;;8.35;72.26;94653.53;4973162;28;20314;-45
2023/12/08 00:10:36;;;;;;;7.20;5.53;;;;;;;8.34;72.43;94659.56;4956174;28;20229;-45
2023/12/08 00:13:09;;;;;;;6.73;5.00;;;;;;;8.35;72.34;94657.84;4972728;28;20190;-46
2023/12/08 00:15:40;;;;;;;6.10;5.47;;;;;;;8.35;72.23;94662.94;4973734;28;20665;-46
2023/12/08 00:18:12;;;;;;;11.13;6.40;;;;;;;8.34;72.19;94664.69;4948572;28;20638;-46
2023/12/08 00:20:39;;;;;;;6.10;5.23;;;;;;;8.34;72.31;94666.41;4941025;28;20198;-46
2023/12/08 00:23:06;;;;;;;5.17;4.67;;;;;;;8.34;72.29;94656.22;4973401;28;20309;-46
2023/12/08 00:25:41;;;;;;;6.87;5.53;;;;;;;8.32;72.11;94660.63;4956061;28;20198;-46
2023/12/08 00:28:15;;;;;;;7.07;5.70;;;;;;;8.28;72.40;94660.88;4973190;28;20297;-46
2023/12/08 00:30:48;;;;;;;6.40;5.53;;;;;;;8.28;72.20;94652.41;4971938;28;20193;-45
2023/12/08 00:33:18;;;;;;;6.63;5.33;;;;;;;8.31;72.19;94659.81;4973060;28;20592;-45
2023/12/08 00:35:49;;;;;;;6.83;5.47;;;;;;;8.27;71.88;94649.06;4972975;28;20744;-45
2023/12/08 00:38:19;;;;;;;6.20;5.50;;;;;;;8.30;72.22;94655.66;4971305;28;20636;-45
2023/12/08 00:40:56;;;;;;;5.23;4.73;;;;;;;8.30;72.25;94659.03;4973192;28;20194;-45
2023/12/08 00:43:42;;;;;;;6.93;5.83;;;;;;;8.30;72.06;94659.03;4940551;28;20233;-46
2023/12/08 00:46:10;;;;;;;7.40;5.90;;;;;;;8.14;72.18;94634.91;4975306;28;20208;-46
2023/12/08 00:48:37;;;;;;;6.87;5.73;;;;;;;8.28;72.23;94643.03;4975654;28;20529;-45
2023/12/08 00:51:06;;;;;;;7.17;5.87;;;;;;;8.18;72.11;94631.97;4991712;28;20193;-45
2023/12/08 00:53:34;;;;;;;7.10;5.67;;;;;;;8.28;72.14;94649.88;4991877;28;20201;-46
2023/12/08 00:56:01;;;;;;;5.33;4.70;;;;;;;8.29;72.12;94651.50;4991449;28;20645;-46
2023/12/08 00:58:36;;;;;;;6.90;5.90;;;;;;;8.29;72.00;94659.97;4991968;28;20350;-45
2023/12/08 01:01:12;;;;;;;6.07;5.13;;;;;;;8.28;72.13;94655.78;4992192;28;20188;-46
2023/12/08 01:03:42;;;;;;;6.30;5.20;;;;;;;8.28;72.16;94658.31;4992264;28;20206;-46
2023/12/08 01:06:12;;;;;;;5.67;5.07;;;;;;;8.28;72.04;94660.88;4991903;28;20232;-45
2023/12/08 01:08:55;;;;;;;7.33;5.50;;;;;;;8.28;72.01;94653.22;4990416;28;20231;-46
2023/12/08 01:11:23;;;;;;;6.67;5.73;;;;;;;8.27;72.04;94658.44;4989860;28;20208;-46
2023/12/08 01:13:58;;;;;;;6.53;5.57;;;;;;;8.24;71.85;94656.94;4977157;28;20201;-46
2023/12/08 01:16:27;;;;;;;5.97;5.37;;;;;;;8.27;72.00;94654.16;4974286;28;20197;-44
2023/12/08 01:19:09;;;;;;;5.43;4.90;;;;;;;8.22;71.98;94655.47;4991727;28;20248;-45
2023/12/08 01:21:36;;;;;;;6.27;5.27;;;;;;;8.24;72.04;94656.16;4991052;28;20248;-45
2023/12/08 01:24:10;;;;;;;7.60;4.93;;;;;;;8.26;72.00;94661.94;4972211;28;20618;-46
2023/12/08 01:26:48;;;;;;;6.30;5.40;;;;;;;8.26;71.70;94661.94;4970052;28;20198;-45
2023/12/08 01:29:18;;;;;;;6.63;4.93;;;;;;;8.25;72.00;94656.03;4972118;28;20605;-45
2023/12/08 01:31:57;;;;;;;5.90;5.30;;;;;;;8.23;71.98;94652.00;4972004;28;20190;-45
2023/12/08 01:34:24;;;;;;;6.33;5.40;;;;;;;8.19;71.94;94650.63;4981196;28;20275;-45
2023/12/08 01:36:51;;;;;;;5.87;5.27;;;;;;;8.24;71.76;94663.78;4991216;28;20253;-44
2023/12/08 01:39:17;;;;;;;5.97;5.30;;;;;;;8.25;72.02;94655.25;4991802;28;20185;-44
2023/12/08 01:41:44;;;;;;;8.17;5.53;;;;;;;8.24;71.78;94656.94;4990623;28;20276;-45
2023/12/08 01:44:11;;;;;;;7.13;4.93;;;;;;;8.25;71.89;94665.44;4991407;28;20653;-45
2023/12/08 01:46:47;;;;;;;5.70;4.97;;;;;;;8.24;71.78;94661.25;4990992;28;20197;-45
2023/12/08 01:49:21;;;;;;;6.87;5.47;;;;;;;8.26;71.76;94659.41;4990644;28;20604;-45
2023/12/08 01:51:51;;;;;;;5.77;5.17;;;;;;;8.07;71.86;94629.50;4991088;28;20196;-44
2023/12/08 01:54:20;;;;;;;6.13;5.20;;;;;;;8.23;71.82;94652.78;4970560;28;20205;-45
2023/12/08 01:56:48;;;;;;;5.93;5.33;;;;;;;8.25;71.66;94647.59;4973109;28;20354;-47
2023/12/08 01:59:18;;;;;;;5.87;5.27;;;;;;;8.22;71.84;94651.19;4991222;28;20302;-46
2023/12/08 02:01:47;;;;;;;5.40;4.90;;;;;;;8.23;71.55;94655.34;4974485;28;20189;-45
2023/12/08 02:04:17;;;;;;;6.37;4.97;;;;;;;8.20;71.48;94655.63;4989787;28;20582;-45
2023/12/08 02:06:47;;;;;;;6.43;5.30;;;;;;;8.23;71.69;94660.44;4990257;28;20217;-46
2023/12/08 02:09:15;;;;;;;6.50;5.30;;;;;;;8.23;71.47;94654.53;4990830;28;20244;-46
2023/12/08 02:11:45;;;;;;;6.97;5.57;;;;;;;8.23;71.57;94664.72;4964496;28;20261;-45
2023/12/08 02:14:25;;;;;;;5.70;5.10;;;;;;;8.23;71.70;94665.53;4958485;28;20263;-45
2023/12/08 02:17:04;;;;;;;6.97;5.33;;;;;;;8.23;71.54;94669.81;4990190;28;20276;-45
2023/12/08 02:19:34;;;;;;;6.20;5.03;;;;;;;8.19;71.54;94666.72;4973171;28;20560;-45
2023/12/08 02:22:03;;;;;;;5.47;4.80;;;;;;;8.21;71.34;94672.50;4990722;28;20216;-45
2023/12/08 02:24:32;;;;;;;6.00;5.40;;;;;;;8.21;71.48;94675.06;4973234;28;20683;-45
2023/12/08 02:26:59;;;;;;;5.70;5.03;;;;;;;8.22;71.30;94678.41;4990660;28;20185;-45
2023/12/08 02:29:27;;;;;;;6.20;5.37;;;;;;;8.21;71.46;94677.59;4972970;28;20736;-45
2023/12/08 02:32:03;;;;;;;6.40;5.53;;;;;;;8.21;71.31;94677.59;4990521;28;20271;-45
2023/12/08 02:34:35;;;;;;;5.53;4.90;;;;;;;8.20;71.35;94678.53;4991154;28;20196;-45
2023/12/08 02:37:06;;;;;;;8.27;5.37;;;;;;;8.21;71.39;94674.25;4989876;28;20260;-46
2023/12/08 02:39:38;;;;;;;6.93;5.63;;;;;;;8.17;71.33;94660.94;4990449;28;20280;-45
2023/12/08 02:42:09;;;;;;;5.97;4.80;;;;;;;8.22;71.12;94670.75;4982600;28;20193;-45
2023/12/08 02:44:36;;;;;;;6.80;5.23;;;;;;;8.21;71.15;94672.50;4989952;28;20288;-47
2023/12/08 02:47:03;;;;;;;7.20;5.33;;;;;;;8.21;71.09;94669.97;4990035;28;20197;-45
2023/12/08 02:49:31;;;;;;;6.33;5.13;;;;;;;8.22;70.95;94673.31;4990112;28;20656;-46
2023/12/08 02:52:00;;;;;;;7.43;5.60;;;;;;;8.22;71.23;94684.31;4989376;28;20604;-46
2023/12/08 02:54:32;;;;;;;5.90;5.23;;;;;;;8.22;71.03;94678.41;4990503;28;20197;-45
2023/12/08 02:57:03;;;;;;;7.90;5.70;;;;;;;8.21;70.77;94675.06;4990066;28;20219;-45
2023/12/08 02:59:30;;;;;;;6.57;5.50;;;;;;;8.22;70.95;94678.41;4990126;28;20228;-45
2023/12/08 03:02:00;;;;;;;6.30;4.87;;;;;;;8.16;70.94;94666.97;4989985;28;20269;-46
2023/12/08 03:04:31;;;;;;;8.20;6.07;;;;;;;8.19;70.78;94671.00;4990123;28;20185;-45
2023/12/08 03:07:02;;;;;;;8.23;5.67;;;;;;;8.21;70.69;94685.25;4972519;28;20224;-44
2023/12/08 03:09:39;;;;;;;5.87;5.27;;;;;;;8.21;70.89;94686.97;4989810;28;20228;-46
2023/12/08 03:12:08;;;;;;;6.77;5.90;;;;;;;8.20;70.76;94681.09;4989900;28;20724;-45
2023/12/08 03:14:44;;;;;;;6.97;5.27;;;;;;;8.20;70.68;94677.69;4989440;28;20196;-46
2023/12/08 03:17:13;;;;;;;8.87;5.70;;;;;;;8.20;70.74;94670.06;4989852;28;20560;-45
2023/12/08 03:19:45;;;;;;;6.00;5.17;;;;;;;8.19;70.76;94668.44;4990006;28;20240;-45
2023/12/08 03:22:19;;;;;;;6.23;5.63;;;;;;;8.20;70.63;94680.25;4989696;28;20196;-45
2023/12/08 03:24:49;;;;;;;8.33;5.63;;;;;;;8.18;70.64;94667.66;4972910;28;20274;-46
2023/12/08 03:27:27;;;;;;;7.90;5.83;;;;;;;8.15;70.72;94661.97;4988508;28;20197;-45
2023/12/08 03:29:59;;;;;;;6.00;5.40;;;;;;;8.20;70.65;94673.44;4989705;28;20200;-44
2023/12/08 03:32:26;;;;;;;7.10;5.47;;;;;;;8.21;70.62;94671.69;4992771;28;20181;-46
2023/12/08 03:34:54;;;;;;;6.67;5.70;;;;;;;8.09;70.61;94659.94;4993829;28;20252;-45
2023/12/08 03:40:08;;;;;;;8.30;5.83;;;;;;;8.20;70.56;94668.34;4993304;28;20276;-46
2023/12/08 03:42:40;;;;;;;6.63;5.33;;;;;;;8.17;70.40;94662.69;4976338;28;20201;-47
2023/12/08 03:45:08;;;;;;;6.77;5.60;;;;;;;8.19;70.78;94676.09;4975669;28;20308;-44
2023/12/08 03:47:36;;;;;;;6.80;6.00;;;;;;;8.18;70.56;94666.84;4993524;28;20220;-45
2023/12/08 03:50:03;;;;;;;6.63;4.77;;;;;;;8.13;70.62;94651.13;4959890;28;20196;-47
2023/12/08 03:52:30;;;;;;;6.30;5.17;;;;;;;8.17;70.53;94663.50;4993223;28;20193;-44
2023/12/08 03:54:58;;;;;;;6.63;5.90;;;;;;;8.16;70.45;94656.78;4993361;28;20691;-45
2023/12/08 03:57:25;;;;;;;8.10;5.63;;;;;;;8.17;70.61;94652.50;4993075;28;20192;-46
2023/12/08 04:00:05;;;;;;;6.50;5.70;;;;;;;8.12;70.40;94644.41;4975629;28;20228;-46
2023/12/08 04:02:36;;;;;;;5.20;4.70;;;;;;;8.15;70.39;94656.91;4993399;28;20204;-44
2023/12/08 04:05:08;;;;;;;5.83;5.23;;;;;;;8.15;70.44;94649.25;4992612;28;20652;-44
2023/12/08 04:07:37;;;;;;;5.60;4.73;;;;;;;8.14;70.43;94643.34;4993332;28;20185;-45
2023/12/08 04:10:08;;;;;;;7.00;5.67;;;;;;;8.15;70.37;94639.06;4992914;28;20201;-44
2023/12/08 04:12:38;;;;;;;6.47;5.30;;;;;;;8.13;70.38;94634.09;4993135;28;20197;-45
2023/12/08 04:15:12;;;;;;;8.60;6.30;;;;;;;8.15;70.43;94629.69;4992662;28;20193;-45
2023/12/08 04:17:50;;;;;;;6.13;5.27;;;;;;;8.14;70.42;94632.34;4992207;28;20192;-46
2023/12/08 04:20:22;;;;;;;6.03;5.37;;;;;;;8.14;70.38;94628.06;4986227;28;20567;-46
2023/12/08 04:22:51;;;;;;;5.23;4.73;;;;;;;8.15;70.42;94628.88;4957147;28;20198;-44
2023/12/08 04:25:24;;;;;;;6.10;5.40;;;;;;;7.65;70.30;94549.78;4975069;28;20197;-45
2023/12/08 04:27:52;;;;;;;7.00;5.80;;;;;;;8.14;70.39;94628.06;4975638;28;20199;-45
2023/12/08 04:30:26;;;;;;;8.33;6.30;;;;;;;8.08;70.47;94617.59;4992874;28;20212;-45
2023/12/08 04:32:58;;;;;;;6.67;5.97;;;;;;;8.13;70.33;94630.75;4975510;28;20208;-44
2023/12/08 04:35:28;;;;;;;5.97;5.33;;;;;;;8.14;70.31;94627.28;4975888;28;20197;-45
2023/12/08 04:37:57;;;;;;;5.47;4.80;;;;;;;8.12;70.24;94626.56;4991073;28;20296;-44
2023/12/08 04:40:28;;;;;;;6.10;5.27;;;;;;;8.07;70.22;94626.13;4992340;28;20224;-46
2023/12/08 04:42:56;;;;;;;6.60;5.37;;;;;;;8.14;70.08;94643.34;4992389;28;20189;-45
2023/12/08 04:45:39;;;;;;;5.47;4.90;;;;;;;8.10;70.21;94641.97;4993564;28;20212;-47
2023/12/08 04:48:06;;;;;;;6.57;5.47;;;;;;;8.14;70.25;94647.66;4967435;28;20280;-47
2023/12/08 04:50:33;;;;;;;5.33;4.80;;;;;;;8.13;70.14;94646.84;4992171;28;20268;-46
2023/12/08 04:53:00;;;;;;;6.77;5.60;;;;;;;8.13;70.16;94648.59;4992345;28;20607;-45
2023/12/08 04:55:28;;;;;;;6.77;5.20;;;;;;;8.13;70.21;94654.47;4992127;28;20193;-45
2023/12/08 04:57:55;;;;;;;6.30;5.60;;;;;;;8.14;70.06;94658.63;4992491;28;20205;-47
2023/12/08 05:00:21;;;;;;;6.13;5.53;;;;;;;8.00;69.84;94643.66;4992007;28;20897;-46
2023/12/08 05:02:57;;;;;;;6.30;5.60;;;;;;;8.12;70.04;94657.97;4991977;28;20200;-45
2023/12/08 05:05:24;;;;;;;7.67;5.03;;;;;;;8.12;70.04;94655.41;4991919;28;20714;-45
2023/12/08 05:07:54;;;;;;;6.20;5.20;;;;;;;8.14;70.03;94663.72;4991949;28;20232;-46
2023/12/08 05:10:21;;;;;;;6.00;5.40;;;;;;;8.12;70.10;94657.13;4991625;28;20255;-47
2023/12/08 05:12:49;;;;;;;5.57;4.93;;;;;;;8.04;69.91;94650.13;4992129;28;20189;-48
2023/12/08 05:15:16;;;;;;;6.73;5.67;;;;;;;8.14;69.61;94660.38;4991815;28;20197;-45
2023/12/08 05:17:45;;;;;;;5.63;4.90;;;;;;;8.06;69.94;94645.72;4992260;28;20217;-47
2023/12/08 05:20:17;;;;;;;6.43;5.33;;;;;;;8.05;69.91;94650.00;4991903;28;20239;-47
2023/12/08 05:22:43;;;;;;;7.63;5.50;;;;;;;8.14;69.95;94665.47;4991764;28;20205;-44
2023/12/08 05:25:13;;;;;;;4.90;4.50;;;;;;;8.15;69.83;94662.78;4991785;28;20244;-47
2023/12/08 05:27:43;;;;;;;5.57;4.93;;;;;;;8.05;69.75;94650.00;4991701;28;20204;-46
2023/12/08 05:30:11;;;;;;;6.07;5.00;;;;;;;8.09;69.91;94659.94;4991845;28;20636;-47
2023/12/08 05:32:43;;;;;;;5.47;4.93;;;;;;;8.14;70.05;94671.38;4991036;28;20628;-45
2023/12/08 05:35:12;;;;;;;6.13;5.20;;;;;;;8.14;69.80;94663.72;4974273;28;20193;-46
2023/12/08 05:37:45;;;;;;;6.57;5.60;;;;;;;8.15;69.95;94667.88;4958035;28;20742;-47
2023/12/08 05:40:14;;;;;;;4.93;4.43;;;;;;;8.14;69.75;94671.38;4990796;28;20229;-45
2023/12/08 05:42:42;;;;;;;6.07;5.47;;;;;;;8.14;69.80;94671.38;4991683;28;20197;-45
2023/12/08 05:45:12;;;;;;;6.67;5.23;;;;;;;8.14;69.77;94676.47;4991373;28;20703;-46
2023/12/08 05:47:39;;;;;;;6.57;5.53;;;;;;;8.11;69.72;94674.16;4990993;28;20189;-47
2023/12/08 05:50:09;;;;;;;5.40;4.90;;;;;;;8.16;69.76;94677.16;4990770;28;20189;-45
2023/12/08 05:52:37;;;;;;;6.67;5.57;;;;;;;8.17;69.52;94683.06;4991555;28;20204;-44
2023/12/08 05:55:06;;;;;;;5.70;5.10;;;;;;;8.13;69.58;94674.84;4972736;28;20189;-45
2023/12/08 05:57:35;;;;;;;5.83;5.30;;;;;;;8.04;69.63;94657.78;4990483;28;20255;-46
2023/12/08 06:00:10;;;;;;;6.50;5.20;;;;;;;8.17;69.64;94681.31;4991088;28;20699;-45
2023/12/08 06:02:39;;;;;;;7.17;5.60;;;;;;;8.10;69.57;94671.75;4973123;28;20583;-46
2023/12/08 06:05:07;;;;;;;6.17;5.00;;;;;;;8.19;69.55;94684.53;4991163;28;20372;-46
2023/12/08 06:07:34;;;;;;;6.50;5.20;;;;;;;8.18;69.41;94692.31;4990677;28;20185;-45
2023/12/08 06:10:00;;;;;;;6.50;4.33;;;;;;;8.32;87.99;94674.16;4990104;28;20279;-46
2023/12/08 06:12:28;;;;;;;8.20;4.10;;;;;;;9.07;100.00;94679.94;4990280;28;20196;-46
2023/12/08 06:14:59;;;;;;;9.60;4.77;;;;;;;9.85;100.00;94681.75;4990619;28;20189;-47
2023/12/08 06:17:26;;;;;;;10.00;4.10;;;;;;;10.59;100.00;94686.28;4989752;28;20650;-46
2023/12/08 06:19:52;;;;;;;4.77;4.03;;;;;;;11.24;100.00;94691.47;4990560;28;20229;-46
2023/12/08 06:22:19;;;;;;;3.80;3.50;;;;;;;11.78;100.00;94688.06;4990422;28;20189;-48
2023/12/08 06:24:46;;;;;;;5.40;3.40;;;;;;;12.34;97.05;94693.06;4990060;28;20189;-47
2023/12/08 06:27:14;;;;;;;12.03;4.00;;;;;;;12.74;94.23;94702.84;4991238;28;20193;-45
2023/12/08 06:29:43;;;;;;;4.47;3.63;;;;;;;12.89;91.83;94705.66;4961196;28;20193;-47
2023/12/08 06:32:10;;;;;;;4.77;4.03;;;;;;;12.78;89.52;94702.38;4990737;28;20197;-46
2023/12/08 06:34:36;;;;;;;4.97;4.00;;;;;;;12.68;86.72;94700.84;4989742;28;20193;-46
2023/12/08 06:37:03;;;;;;;4.60;3.87;;;;;;;12.33;84.13;94686.34;4990492;28;20618;-47
2023/12/08 06:39:30;;;;;;;5.00;3.93;;;;;;;12.25;82.15;94707.56;4989831;28;20201;-46
2023/12/08 06:41:57;;;;;;;6.93;4.83;;;;;;;12.03;80.94;94709.63;4990504;28;20304;-45
2023/12/08 06:44:33;;;;;;;6.33;4.43;;;;;;;11.80;79.57;94706.66;4990079;28;20185;-46
2023/12/08 06:47:01;;;;;;;7.27;4.00;;;;;;;11.60;78.87;94706.91;4986824;28;20197;-45
2023/12/08 06:49:28;;;;;;;5.00;4.40;;;;;;;11.25;78.16;94691.31;4990301;28;20247;-47
2023/12/08 06:51:58;;;;;;;5.50;4.20;;;;;;;11.26;77.67;94722.84;4990247;28;20267;-48
2023/12/08 06:54:25;;;;;;;4.57;4.17;;;;;;;11.09;77.26;94721.00;4989957;28;20200;-47
2023/12/08 06:56:53;;;;;;;4.57;3.83;;;;;;;10.85;76.76;94712.06;4990912;28;20217;-46
2023/12/08 06:59:20;;;;;;;4.47;3.87;;;;;;;10.78;76.69;94722.03;4990200;28;20225;-47
2023/12/08 07:01:47;;;;;;;5.07;4.50;;;;;;;10.54;76.55;94707.16;4990093;28;20204;-45
2023/12/08 07:04:16;;;;;;;4.67;4.20;;;;;;;10.40;76.06;94694.78;4989595;28;20239;-46
2023/12/08 07:06:46;;;;;;;5.10;4.60;;;;;;;10.42;76.09;94710.00;4989255;28;20204;-47
2023/12/08 07:09:13;;;;;;;5.67;4.00;;;;;;;10.30;75.93;94709.34;4989248;28;20232;-46
2023/12/08 07:11:41;;;;;;;7.60;4.33;;;;;;;10.00;75.54;94680.38;4990267;28;20193;-46
2023/12/08 07:14:09;;;;;;;5.23;4.73;;;;;;;10.13;75.36;94723.56;4965067;28;20284;-48
2023/12/08 07:16:36;;;;;;;5.87;4.83;;;;;;;10.04;75.30;94721.81;4990036;28;20256;-46
2023/12/08 07:19:05;;;;;;;4.87;4.43;;;;;;;9.95;75.28;94722.63;4990133;28;20225;-45
2023/12/08 07:21:37;;;;;;;5.57;4.87;;;;;;;9.88;74.97;94716.41;4982125;28;20215;-49
2023/12/08 07:24:09;;;;;;;4.90;4.40;;;;;;;9.78;74.93;94717.22;4989766;28;20207;-47
2023/12/08 07:26:37;;;;;;;6.00;5.37;;;;;;;9.70;74.75;94718.81;4990279;28;20267;-48
2023/12/08 07:29:07;;;;;;;8.03;4.83;;;;;;;9.45;74.57;94695.38;4978263;28;20264;-46
2023/12/08 07:31:35;;;;;;;6.27;5.10;;;;;;;9.58;74.49;94719.84;4971252;28;20201;-46
2023/12/08 07:34:01;;;;;;;6.10;5.37;;;;;;;9.50;74.32;94720.53;4989961;28;20193;-47
2023/12/08 07:36:28;;;;;;;5.13;4.60;;;;;;;9.47;74.40;94724.13;4989815;28;20275;-45
2023/12/08 07:38:56;;;;;;;5.90;5.23;;;;;;;9.42;74.08;94723.72;4990554;28;20201;-46
2023/12/08 07:41:23;;;;;;;5.50;4.70;;;;;;;9.32;73.95;94706.75;4990437;28;20197;-45
2023/12/08 07:43:54;;;;;;;5.17;4.67;;;;;;;9.30;73.82;94728.09;4990071;28;20189;-46
2023/12/08 07:46:22;;;;;;;5.27;4.63;;;;;;;9.29;73.77;94730.78;4989383;28;20649;-46
2023/12/08 07:48:49;;;;;;;5.37;4.87;;;;;;;9.18;73.64;94721.47;4987504;28;20756;-46
2023/12/08 07:51:16;;;;;;;6.27;5.30;;;;;;;9.22;73.51;94725.38;4986843;28;20324;-46
2023/12/08 07:53:43;;;;;;;5.87;4.80;;;;;;;9.19;73.59;94733.28;4983132;28;20197;-46
2023/12/08 07:56:13;;;;;;;5.63;5.03;;;;;;;9.18;73.30;94725.78;4985184;28;20189;-47
2023/12/08 07:58:40;;;;;;;6.37;5.27;;;;;;;9.12;73.25;94727.09;4985760;28;20196;-45
2023/12/08 08:01:07;;;;;;;6.40;5.47;;;;;;;9.08;73.21;94719.84;4987749;28;20783;-46
2023/12/08 08:03:34;;;;;;;6.73;5.80;;;;;;;9.10;72.86;94728.16;4986682;28;20660;-46
2023/12/08 08:06:01;;;;;;;6.27;5.67;;;;;;;9.08;73.09;94730.03;4984386;28;20584;-46
2023/12/08 08:08:28;;;;;;;6.27;5.57;;;;;;;8.88;72.97;94698.53;4982618;28;20283;-46
2023/12/08 08:10:54;;;;;;;5.53;4.77;;;;;;;9.03;72.99;94725.31;4989078;28;20193;-47
2023/12/08 08:13:23;;;;;;;7.33;5.43;;;;;;;9.02;72.71;94723.69;4982226;28;20186;-47
2023/12/08 08:15:49;;;;;;;5.47;4.90;;;;;;;9.01;72.69;94722.06;4986007;28;20193;-46
2023/12/08 08:18:16;;;;;;;6.00;5.40;;;;;;;9.00;72.44;94717.91;4990894;28;20197;-46
2023/12/08 08:20:43;;;;;;;8.03;5.50;;;;;;;8.92;72.45;94700.69;4981147;28;20290;-46
2023/12/08 08:23:10;;;;;;;5.80;5.20;;;;;;;9.02;72.29;94716.03;4993400;28;20197;-46
2023/12/08 08:25:37;;;;;;;5.97;5.33;;;;;;;8.99;72.25;94701.81;4992276;28;20189;-46
2023/12/08 08:28:04;;;;;;;6.13;5.13;;;;;;;9.02;72.13;94696.47;4992399;28;20322;-46
2023/12/08 08:30:33;;;;;;;7.87;5.93;;;;;;;9.03;72.05;94703.16;4992324;28;20682;-46
2023/12/08 08:33:00;;;;;;;7.00;5.33;;;;;;;9.03;71.79;94698.06;4990622;28;20190;-45
2023/12/08 08:35:26;;;;;;;10.90;5.37;;;;;;;9.04;71.89;94697.13;4991568;28;20200;-44
2023/12/08 08:37:53;;;;;;;5.63;4.90;;;;;;;8.97;71.66;94675.59;4990930;28;20185;-45
2023/12/08 08:40:20;;;;;;;7.60;6.00;;;;;;;9.07;71.71;94687.59;4985697;28;20236;-45
2023/12/08 08:42:47;;;;;;;5.97;5.37;;;;;;;9.09;71.58;94691.63;4992136;28;20200;-46
2023/12/08 08:45:13;;;;;;;6.67;5.17;;;;;;;9.09;71.58;94683.97;4986425;28;20732;-45
2023/12/08 08:47:43;;;;;;;5.80;4.93;;;;;;;9.13;71.27;94685.34;4986313;28;20216;-45
2023/12/08 08:50:10;;;;;;;9.10;5.50;;;;;;;9.16;71.34;94684.28;4989499;28;20189;-46
2023/12/08 08:52:37;;;;;;;5.63;5.13;;;;;;;9.17;71.15;94686.69;4990662;28;20189;-46
2023/12/08 08:55:04;;;;;;;6.07;5.30;;;;;;;9.19;71.05;94681.47;4990323;28;20185;-45
2023/12/08 08:57:32;;;;;;;6.83;6.00;;;;;;;9.15;70.79;94673.25;4988232;28;20252;-46
2023/12/08 09:00:04;;;;;;;6.47;4.70;;;;;;;9.22;70.89;94668.44;4990851;28;20219;-45
2023/12/08 09:02:33;;;;;;;5.93;5.33;;;;;;;9.16;70.80;94658.78;4970183;28;20197;-46
2023/12/08 09:05:10;;;;;;;6.17;5.37;;;;;;;9.27;70.63;94676.53;4988729;28;20647;-46
2023/12/08 09:07:38;;;;;;;5.33;4.83;;;;;;;9.29;70.52;94669.56;4987663;28;20181;-46
2023/12/08 09:10:09;;;;;;;7.27;5.50;;;;;;;9.32;70.44;94668.47;4988032;28;20200;-49
2023/12/08 09:12:36;;;;;;;8.20;5.23;;;;;;;9.36;70.28;94667.28;4990524;28;20176;-44
2023/12/08 09:15:03;;;;;;;5.87;5.03;;;;;;;9.36;70.19;94668.06;4991085;28;20232;-45
2023/12/08 09:17:34;;;;;;;5.90;4.53;;;;;;;9.39;70.07;94661.91;5002457;28;20209;-46
2023/12/08 09:20:05;;;;;;;5.97;5.23;;;;;;;9.40;69.85;94664.31;4990063;28;20229;-47
2023/12/08 09:22:32;;;;;;;5.37;4.80;;;;;;;9.43;69.88;94653.88;4991251;28;20193;-45
2023/12/08 09:24:59;;;;;;;5.63;4.77;;;;;;;9.45;69.41;94657.06;4991117;28;20212;-45
2023/12/08 09:27:26;;;;;;;6.60;5.03;;;;;;;9.50;69.56;94654.16;4968542;28;20200;-45
2023/12/08 09:29:53;;;;;;;5.67;5.07;;;;;;;9.52;69.29;94649.72;4987182;28;20587;-46
2023/12/08 09:32:25;;;;;;;5.70;5.03;;;;;;;9.55;69.33;94644.34;4985773;28;20200;-47
2023/12/08 09:34:52;;;;;;;6.03;5.03;;;;;;;9.59;69.03;94655.13;4985938;28;20193;-44
2023/12/08 09:37:20;;;;;;;6.43;5.37;;;;;;;9.61;69.10;94648.13;4991022;28;20196;-46
2023/12/08 09:39:47;;;;;;;5.50;5.00;;;;;;;9.62;69.20;94637.75;4990680;28;20287;-46
2023/12/08 09:42:21;;;;;;;6.47;5.13;;;;;;;9.38;68.95;94593.97;4990048;28;20189;-46
2023/12/08 09:44:51;;;;;;;7.73;5.73;;;;;;;9.67;68.86;94642.47;4989225;28;20216;-46
2023/12/08 09:47:21;;;;;;;5.30;4.80;;;;;;;9.49;68.76;94609.13;4987509;28;20201;-45
2023/12/08 09:49:52;;;;;;;6.23;5.23;;;;;;;9.71;68.63;94636.16;4988010;28;20193;-46
2023/12/08 09:52:23;;;;;;;5.93;4.67;;;;;;;9.73;68.46;94631.72;4989584;28;20311;-46
2023/12/08 09:54:52;;;;;;;5.77;5.07;;;;;;;9.74;68.49;94625.69;4989676;28;20556;-44
2023/12/08 09:57:20;;;;;;;5.73;5.13;;;;;;;9.77;68.48;94633.06;4990617;28;20196;-45
2023/12/08 09:59:56;;;;;;;5.40;4.90;;;;;;;9.73;68.11;94622.31;4989733;28;20276;-45
2023/12/08 10:02:24;;;;;;;6.90;5.00;;;;;;;9.80;67.94;94620.84;4989927;28;20648;-47
2023/12/08 10:04:51;;;;;;;6.20;5.60;;;;;;;9.83;67.95;94618.97;4985626;28;20289;-46
2023/12/08 10:07:21;;;;;;;5.53;4.97;;;;;;;9.84;67.88;94618.00;4987325;28;20200;-46
2023/12/08 10:09:47;;;;;;;5.53;4.80;;;;;;;9.85;67.57;94612.78;4987039;28;20236;-46
2023/12/08 10:12:14;;;;;;;5.37;4.83;;;;;;;9.85;67.66;94600.00;4987408;28;20673;-45
2023/12/08 10:14:56;;;;;;;5.67;5.10;;;;;;;9.91;67.67;94608.88;4982601;28;20239;-45
2023/12/08 10:17:24;;;;;;;5.30;4.53;;;;;;;9.92;67.42;94602.81;4983916;28;20197;-46
2023/12/08 10:19:52;;;;;;;5.27;4.73;;;;;;;9.94;67.55;94599.19;4984238;28;20673;-47
2023/12/08 10:22:21;;;;;;;6.73;5.03;;;;;;;9.92;67.24;94606.16;4982817;28;20182;-45
2023/12/08 10:24:47;;;;;;;5.23;4.53;;;;;;;9.97;67.42;94595.53;4981146;28;20202;-46
2023/12/08 10:27:14;;;;;;;5.13;4.63;;;;;;;9.95;67.15;94598.25;4986681;28;20200;-45
2023/12/08 10:29:41;;;;;;;7.17;5.07;;;;;;;9.98;67.12;94595.44;4986903;28;20228;-46
2023/12/08 10:32:07;;;;;;;6.57;5.37;;;;;;;9.98;67.10;94599.75;4986783;28;20193;-45
2023/12/08 10:34:33;;;;;;;6.23;5.07;;;;;;;10.00;67.09;94602.94;4985171;28;20197;-46
2023/12/08 10:37:01;;;;;;;4.93;4.50;;;;;;;9.39;67.13;94499.38;4988620;28;20541;-45
2023/12/08 10:39:29;;;;;;;5.77;4.83;;;;;;;9.96;66.96;94581.97;4989643;28;20189;-45
2023/12/08 10:41:56;;;;;;;5.70;5.07;;;;;;;9.95;66.99;94577.81;4986266;28;20234;-45
2023/12/08 10:44:23;;;;;;;5.47;4.70;;;;;;;9.89;67.01;94570.72;4985444;28;20636;-48
2023/12/08 10:46:50;;;;;;;6.77;5.50;;;;;;;10.03;66.66;94589.91;4983541;28;20197;-45
2023/12/08 10:49:20;;;;;;;5.53;4.93;;;;;;;9.93;66.75;94574.59;4988939;28;20641;-46
2023/12/08 10:51:58;;;;;;;5.90;4.93;;;;;;;9.93;66.74;94566.94;4985321;28;20190;-47
2023/12/08 10:54:27;;;;;;;5.77;5.00;;;;;;;10.06;66.67;94587.09;5001605;28;20271;-46
2023/12/08 10:56:56;;;;;;;5.13;4.63;;;;;;;10.07;66.54;94581.03;5001167;28;20192;-45
2023/12/08 10:59:25;;;;;;;5.17;4.67;;;;;;;10.08;66.47;94582.63;5000248;28;20337;-47
2023/12/08 11:01:54;;;;;;;5.77;4.77;;;;;;;10.05;66.51;94575.22;4999400;28;20220;-46
2023/12/08 11:04:23;;;;;;;5.67;4.90;;;;;;;10.08;66.43;94580.06;5005325;28;20200;-45
2023/12/08 11:06:58;;;;;;;5.77;4.70;;;;;;;10.04;66.52;94569.31;4996802;28;20201;-51
2023/12/08 11:09:29;;;;;;;6.50;4.67;;;;;;;10.06;66.43;94576.88;5002284;28;20310;-45
2023/12/08 11:12:03;;;;;;;6.17;4.43;;;;;;;10.07;66.33;94572.56;5005570;28;20572;-46
2023/12/08 11:14:37;;;;;;;7.70;5.27;;;;;;;9.98;66.18;94562.22;4989236;28;20228;-45
2023/12/08 11:17:22;;;;;;;4.83;4.40;;;;;;;9.95;66.28;94556.56;5003661;28;20200;-45
2023/12/08 11:19:51;;;;;;;8.87;5.17;;;;;;;9.89;66.36;94547.72;4972467;28;20232;-48
2023/12/08 11:22:24;;;;;;;6.73;5.07;;;;;;;10.02;66.15;94571.22;5001358;28;20593;-46
2023/12/08 11:24:56;;;;;;;6.43;5.30;;;;;;;10.00;66.25;94562.88;4995071;28;20204;-46
2023/12/08 11:27:33;;;;;;;5.47;4.80;;;;;;;9.87;66.24;94543.69;4989001;28;20205;-45
2023/12/08 11:30:08;;;;;;;5.93;5.00;;;;;;;9.93;66.35;94561.84;4988012;28;20201;-45
2023/12/08 11:32:42;;;;;;;8.70;5.67;;;;;;;9.95;66.21;94565.03;4988573;28;20196;-45
2023/12/08 11:35:16;;;;;;;5.10;4.60;;;;;;;9.94;66.02;94568.53;4981318;28;20199;-45
2023/12/08 11:37:48;;;;;;;6.83;5.57;;;;;;;9.91;66.17;94557.78;4985373;28;20252;-46
2023/12/08 11:40:15;;;;;;;6.13;4.97;;;;;;;9.92;66.18;94569.59;4986606;28;20262;-46
2023/12/08 11:42:50;;;;;;;6.60;5.10;;;;;;;9.86;66.10;94557.41;4988769;28;20197;-46
2023/12/08 11:45:19;;;;;;;6.43;4.77;;;;;;;9.87;66.13;94562.34;4969815;28;20287;-46
2023/12/08 11:47:46;;;;;;;6.30;5.10;;;;;;;9.86;66.16;94560.75;4988944;28;20200;-45
2023/12/08 11:50:13;;;;;;;6.30;4.83;;;;;;;9.85;66.13;94563.47;4988696;28;20216;-46
2023/12/08 11:52:43;;;;;;;6.30;5.33;;;;;;;9.83;66.02;94562.78;4996771;28;20202;-46
2023/12/08 11:55:12;;;;;;;5.90;5.30;;;;;;;9.80;66.21;94557.00;5005866;28;20255;-46